createdAt,value
2023-02-14T00:00:41.515Z,99.99
2023-02-14T00:01:41.500Z,99.99
2023-02-14T00:02:41.553Z,99.99
2023-02-14T00:03:41.508Z,99.99
2023-02-14T00:04:41.612Z,99.99
2023-02-14T00:05:41.477Z,99.49
2023-02-14T00:06:41.473Z,99.18
2023-02-14T00:07:41.462Z,98.97
2023-02-14T00:08:41.446Z,98.80
2023-02-14T00:09:41.443Z,98.69
2023-02-14T00:10:41.433Z,98.80
2023-02-14T00:11:42.215Z,99.22
2023-02-14T00:12:41.425Z,99.22
2023-02-14T00:13:41.410Z,99.54
2023-02-14T00:14:42.216Z,99.32
2023-02-14T00:15:41.424Z,99.32
2023-02-14T00:16:41.408Z,99.01
2023-02-14T00:17:41.384Z,99.54
2023-02-14T00:18:41.403Z,99.99
2023-02-14T00:19:41.386Z,99.99
2023-02-14T00:20:41.353Z,99.99
2023-02-14T00:21:41.353Z,99.99
2023-02-14T00:22:44.301Z,99.99
2023-02-14T00:23:41.344Z,99.99
2023-02-14T00:25:24.450Z,99.99
2023-02-14T00:26:24.448Z,99.99
2023-02-14T00:27:24.438Z,99.99
2023-02-14T00:28:24.422Z,99.99
2023-02-14T00:29:24.429Z,99.99
2023-02-14T00:30:24.593Z,99.99
2023-02-14T00:31:24.516Z,99.99
2023-02-14T00:32:25.507Z,99.99
2023-02-14T00:33:25.491Z,99.99
2023-02-14T00:34:25.485Z,99.99
2023-02-14T00:35:25.467Z,99.99
2023-02-14T00:36:25.453Z,99.99
2023-02-14T00:37:25.455Z,99.99
2023-02-14T00:38:25.448Z,99.99
2023-02-14T00:39:25.434Z,99.99
2023-02-14T00:40:25.440Z,99.99
2023-02-14T00:41:25.413Z,99.99
2023-02-14T00:42:25.403Z,99.99
2023-02-14T00:43:25.433Z,99.95
2023-02-14T00:44:25.392Z,99.99
2023-02-14T00:45:25.455Z,99.99
2023-02-14T00:46:25.375Z,99.22
2023-02-14T00:47:25.400Z,99.58
2023-02-14T00:48:25.367Z,99.99
2023-02-14T21:24:33.050Z,99.99
2023-02-14T21:25:33.030Z,99.99
2023-02-14T21:26:33.034Z,99.99
2023-02-14T21:27:33.013Z,99.99
2023-02-14T21:28:34.100Z,99.99
2023-02-14T21:29:34.100Z,99.99
2023-02-14T21:30:34.086Z,99.99
2023-02-14T21:31:34.150Z,99.99
2023-02-14T21:32:34.078Z,99.99
2023-02-14T21:33:34.820Z,99.99
2023-02-14T21:34:34.046Z,99.99
2023-02-14T21:35:34.043Z,99.99
2023-02-14T21:36:34.045Z,99.99
2023-02-14T21:37:34.052Z,99.99
2023-02-14T21:38:34.022Z,99.99
2023-02-14T21:39:35.020Z,99.99
2023-02-14T21:40:34.010Z,99.99
2023-02-14T21:41:34.006Z,99.99
2023-02-14T21:42:33.998Z,99.99
2023-02-14T21:43:34.024Z,99.99
2023-02-14T21:44:33.975Z,99.99
2023-02-14T21:45:34.010Z,99.99
2023-02-14T21:46:34.036Z,99.99
2023-02-14T21:47:33.954Z,99.99
2023-02-14T21:48:33.942Z,99.99
2023-02-14T21:49:33.935Z,99.98
2023-02-14T21:50:34.126Z,99.99
2023-02-14T21:51:34.923Z,99.99
2023-02-14T21:52:33.915Z,99.99
2023-02-14T21:53:33.942Z,99.99
2023-02-14T21:54:33.897Z,99.99
2023-02-14T21:55:33.885Z,99.99
2023-02-14T21:56:33.882Z,99.99
2023-02-14T21:57:33.874Z,99.99
2023-02-14T21:58:33.872Z,99.99
2023-02-14T21:59:33.866Z,99.99
2023-02-14T22:00:33.849Z,99.99
2023-02-14T22:01:33.868Z,99.83
2023-02-14T22:02:33.857Z,99.99
2023-02-14T22:03:33.829Z,99.93
2023-02-14T22:04:33.848Z,99.99
2023-02-14T22:05:33.811Z,99.46
2023-02-14T22:06:33.809Z,99.35
2023-02-14T22:07:33.794Z,99.41
2023-02-14T22:08:33.815Z,99.31
2023-02-14T22:09:33.796Z,99.73
2023-02-14T22:10:33.813Z,99.52
2023-02-14T22:11:34.416Z,99.52
2023-02-14T22:12:33.754Z,99.31
2023-02-14T22:13:33.762Z,99.52
2023-02-14T22:14:33.779Z,99.62
2023-02-14T22:15:33.726Z,99.52
2023-02-14T22:16:33.728Z,98.99
2023-02-14T22:17:33.721Z,99.20
2023-02-14T22:18:33.715Z,98.79
2023-02-14T22:19:33.704Z,98.26
2023-02-14T22:20:33.687Z,98.47
2023-02-14T22:21:33.689Z,98.58
2023-02-14T22:22:33.686Z,98.37
2023-02-14T22:23:34.060Z,98.16
2023-02-14T22:25:40.456Z,98.05
2023-02-14T22:26:40.514Z,97.99
2023-02-14T22:27:40.489Z,97.99
2023-02-14T22:28:40.440Z,97.89
2023-02-14T22:29:40.453Z,97.99
2023-02-14T22:30:40.420Z,98.10
2023-02-14T22:31:40.582Z,98.25
2023-02-14T22:32:40.407Z,98.04
2023-02-14T22:33:42.326Z,98.31
2023-02-14T22:34:40.385Z,98.25
2023-02-14T22:35:40.405Z,97.89
2023-02-14T22:36:40.375Z,97.78
2023-02-14T22:37:40.378Z,98.04
2023-02-14T22:38:40.371Z,98.10
2023-02-14T22:39:40.373Z,97.68
2023-02-14T22:40:40.342Z,97.78
2023-02-14T22:41:40.338Z,97.78
2023-02-14T22:42:40.330Z,97.89
2023-02-14T22:43:40.330Z,97.85
2023-02-14T22:44:40.309Z,98.16
2023-02-14T22:45:40.298Z,97.95
2023-02-14T22:46:40.340Z,97.95
2023-02-14T22:47:40.290Z,98.16
2023-02-14T22:48:40.310Z,98.05
2023-02-14T22:49:40.268Z,96.91
2023-02-14T22:50:40.272Z,96.80
2023-02-14T22:51:41.413Z,97.01
2023-02-14T22:52:41.334Z,97.05
2023-02-14T22:53:41.332Z,96.84
2023-02-14T22:54:41.320Z,96.74
2023-02-14T22:55:41.318Z,96.95
2023-02-14T22:56:41.341Z,96.74
2023-02-14T22:57:41.300Z,96.95
2023-02-14T22:58:41.834Z,96.59
2023-02-14T22:59:41.294Z,97.11
2023-02-14T23:00:41.309Z,96.80
2023-02-14T23:01:41.362Z,96.80
2023-02-14T23:02:41.314Z,97.01
2023-02-14T23:03:41.262Z,96.59
2023-02-14T23:04:41.322Z,96.59
2023-02-14T23:05:41.232Z,96.49
2023-02-14T23:06:41.223Z,96.22
2023-02-14T23:07:41.212Z,96.01
2023-02-14T23:08:41.965Z,96.74
2023-02-14T23:09:41.237Z,97.05
2023-02-14T23:10:41.190Z,96.84
2023-02-14T23:11:41.191Z,97.16
2023-02-14T23:12:41.177Z,96.64
2023-02-14T23:13:41.161Z,96.64
2023-02-14T23:14:41.167Z,96.74
2023-02-14T23:15:41.158Z,96.64
2023-02-14T23:16:41.136Z,96.53
2023-02-14T23:17:41.128Z,96.84
2023-02-14T23:18:41.126Z,96.80
2023-02-14T23:19:41.124Z,95.80
2023-02-14T23:20:41.106Z,96.43
2023-02-14T23:21:41.102Z,96.64
2023-02-14T23:22:41.159Z,96.53
2023-02-14T23:23:41.081Z,96.22
2023-02-14T23:24:41.082Z,96.33
2023-02-14T23:25:41.068Z,96.01
2023-02-14T23:26:41.069Z,96.07
2023-02-14T23:27:41.057Z,96.33
2023-02-14T23:28:41.090Z,96.11
2023-02-14T23:29:41.043Z,96.07
2023-02-14T23:30:41.158Z,96.07
2023-02-14T23:31:41.195Z,96.49
2023-02-14T23:32:41.020Z,95.65
2023-02-14T23:33:41.024Z,96.53
2023-02-14T23:34:41.004Z,95.70
2023-02-14T23:35:41.011Z,95.55
2023-02-14T23:36:40.994Z,95.44
2023-02-14T23:37:41.995Z,95.76
2023-02-14T23:38:40.968Z,95.38
2023-02-14T23:39:40.965Z,96.16
2023-02-14T23:40:41.914Z,96.05
2023-02-14T23:41:40.942Z,96.47
2023-02-14T23:42:41.021Z,95.95
2023-02-14T23:43:40.947Z,96.53
2023-02-14T23:44:41.924Z,95.84
2023-02-14T23:45:40.939Z,96.22
2023-02-14T23:46:41.909Z,95.95
2023-02-14T23:47:40.903Z,96.43
2023-02-14T23:48:40.903Z,96.74
2023-02-14T23:49:40.885Z,96.64
2023-02-14T23:50:40.877Z,96.47
2023-02-14T23:51:40.883Z,96.89
2023-02-14T23:52:40.863Z,97.05
2023-02-14T23:53:40.858Z,96.53
2023-02-14T23:54:40.848Z,96.64
2023-02-14T23:55:40.838Z,96.11
2023-02-14T23:56:40.836Z,96.33
2023-02-14T23:57:40.824Z,96.68
2023-02-14T23:58:43.114Z,96.37
2023-02-14T23:59:40.813Z,96.58
